.
WxDataArchive / Data Records for 2008-11-24
2008-11-23 November 2008 2008-11-25

Data Records for Monday, 24 November 2008

Time	Temp	Chill	HIndex	Humid	Dewpt	 Wind 	HiWind	WindDir	Rain 	Barom 
-----	----	-----	------	-----	-----	------	------	-------	-----	----- 
00:00	30.9	30.9	30.9	62	19.4	0	0	---	0.00	30.096 
00:05	30.7	30.7	30.7	63	19.6	0	0	---	0.00	30.089 
00:10	30.6	30.6	30.6	63	19.5	0	0	---	0.00	30.086 
00:15	30.4	30.4	30.4	64	19.7	0	0	---	0.00	30.085 
00:20	30.3	30.3	30.3	64	19.6	0	0	---	0.00	30.085 
00:25	30.1	30.1	30.1	64	19.4	0	0	---	0.00	30.083 
00:30	29.8	29.8	29.8	65	19.5	0	0	---	0.00	30.082 
00:35	29.7	29.7	29.7	65	19.4	0	0	---	0.00	30.081 
00:40	29.4	29.4	29.4	66	19.5	0	0	---	0.00	30.078 
00:45	29.1	29.1	29.1	66	19.2	0	0	---	0.00	30.074 
00:50	28.8	28.8	28.8	67	19.2	0	0	---	0.00	30.071 
00:55	28.5	28.5	28.5	67	19.0	0	0	---	0.00	30.069 
01:00	28.4	28.4	28.4	68	19.2	0	0	---	0.00	30.068 
01:05	28.1	28.1	28.1	69	19.3	0	0	---	0.00	30.059 
01:10	27.9	27.9	27.9	70	19.4	0	0	---	0.00	30.055 
01:15	27.8	27.8	27.8	70	19.3	0	0	---	0.00	30.053 
01:20	27.6	27.6	27.6	70	19.1	0	0	---	0.00	30.054 
01:25	27.3	27.3	27.3	70	18.8	0	0	---	0.00	30.053 
01:30	27.0	27.0	27.0	71	18.9	0	0	---	0.00	30.054 
01:35	26.9	26.9	26.9	72	19.1	0	0	---	0.00	30.051 
01:40	26.6	26.6	26.6	73	19.1	0	0	---	0.00	30.049 
01:45	26.4	26.4	26.4	73	18.9	0	0	---	0.00	30.044 
01:50	26.3	26.3	26.3	74	19.2	0	0	---	0.00	30.041 
01:55	26.1	26.1	26.1	74	19.0	0	0	---	0.00	30.039 
02:00	26.1	26.1	26.1	75	19.3	0	0	---	0.00	30.038 
02:05	26.1	26.1	26.1	75	19.3	0	0	---	0.00	30.035 
02:10	26.0	26.0	26.0	74	18.9	0	0	---	0.00	30.033 
02:15	25.8	25.8	25.8	75	19.0	0	0	---	0.00	30.031 
02:20	25.7	25.7	25.7	75	18.9	0	0	---	0.00	30.026 
02:25	25.6	25.6	25.6	75	18.8	0	0	---	0.00	30.027 
02:30	25.4	25.4	25.4	76	18.9	0	0	---	0.00	30.023 
02:35	25.4	25.4	25.4	76	18.9	0	0	---	0.00	30.024 
02:40	25.3	25.3	25.3	76	18.8	0	0	---	0.00	30.024 
02:45	25.3	25.3	25.3	77	19.1	0	0	---	0.00	30.022 
02:50	25.4	25.4	25.4	77	19.2	0	0	---	0.00	30.019 
02:55	25.4	25.4	25.4	77	19.2	0	0	---	0.00	30.015 
03:00	25.6	25.6	25.6	76	19.1	0	0	---	0.00	30.010 
03:05	25.7	25.7	25.7	77	19.5	0	0	---	0.00	30.006 
03:10	25.8	25.8	25.8	76	19.3	0	1	248	0.00	30.003 
03:15	26.1	26.1	26.1	76	19.6	0	1	248	0.00	30.001 
03:20	26.4	26.4	26.4	76	19.9	0	1	248	0.00	29.994 
03:25	26.7	26.7	26.7	74	19.5	0	0	---	0.00	29.993 
03:30	26.9	26.9	26.9	74	19.7	0	0	---	0.00	29.989 
03:35	27.0	27.0	27.0	74	19.8	0	0	---	0.00	29.991 
03:40	27.2	27.2	27.2	73	19.7	0	0	---	0.00	29.986 
03:45	27.0	27.0	27.0	73	19.5	0	0	---	0.00	29.975 
03:50	27.2	27.2	27.2	73	19.7	0	0	---	0.00	29.974 
03:55	27.3	27.3	27.3	74	20.1	0	0	---	0.00	29.977 
04:00	27.5	27.5	27.5	75	20.6	0	1	248	0.00	29.969 
04:05	27.8	27.8	27.8	75	20.9	0	1	248	0.00	29.969 
04:10	28.1	28.1	28.1	74	20.9	0	0	---	0.00	29.968 
04:15	28.2	28.2	28.2	75	21.3	0	0	---	0.00	29.962 
04:20	28.4	28.4	28.4	75	21.5	0	0	---	0.00	29.958 
04:25	28.5	28.5	28.5	75	21.6	0	0	---	0.00	29.950 
04:30	29.0	29.0	29.0	74	21.8	0	1	248	0.00	29.940 
04:35	29.4	29.4	29.4	72	21.5	0	1	248	0.00	29.940 
04:40	30.0	30.0	30.0	71	21.8	0	2	248	0.00	29.934 
04:45	30.6	30.6	30.6	71	22.3	0	1	248	0.00	29.925 
04:50	31.0	31.0	31.0	70	22.4	0	2	248	0.00	29.922 
04:55	31.5	31.5	31.5	69	22.5	0	2	248	0.00	29.921 
05:00	31.8	31.8	31.8	69	22.8	0	2	248	0.00	29.917 
05:05	32.1	32.1	32.1	68	22.7	0	1	248	0.00	29.913 
05:10	32.2	32.2	32.2	69	23.2	0	1	225	0.00	29.910 
05:15	32.4	32.4	32.4	69	23.4	0	2	225	0.00	29.907 
05:20	32.7	32.7	32.7	69	23.7	0	2	225	0.00	29.904 
05:25	32.7	32.7	32.7	69	23.7	0	1	225	0.00	29.902 
05:30	32.8	32.8	32.8	70	24.1	0	1	225	0.00	29.893 
05:35	32.9	32.9	32.9	70	24.2	0	1	225	0.00	29.892 
05:40	32.9	32.9	32.9	72	24.9	0	3	112	0.00	29.892 
05:45	33.1	33.1	33.1	73	25.4	0	2	112	0.00	29.883 
05:50	33.1	33.1	33.1	75	26.1	0	2	112	0.00	29.878 
05:55	33.1	33.1	33.1	76	26.4	0	2	112	0.00	29.876 
06:00	33.1	33.1	33.1	77	26.7	0	1	112	0.00	29.878 
06:05	33.1	33.1	33.1	79	27.3	0	1	112	0.00	29.880 
06:10	33.1	33.1	33.1	80	27.6	0	1	112	0.00	29.882 
06:15	33.1	33.1	33.1	81	27.9	0	1	112	0.00	29.876 
06:20	33.1	33.1	33.1	82	28.2	0	1	112	0.00	29.872 
06:25	33.1	33.1	33.1	82	28.2	0	2	112	0.00	29.872 
06:30	32.9	32.9	32.9	83	28.3	0	1	112	0.00	29.863 
06:35	32.9	32.9	32.9	84	28.6	0	1	112	0.00	29.862 
06:40	33.1	33.1	33.1	85	29.1	0	1	112	0.00	29.861 
06:45	33.1	33.1	33.1	86	29.4	0	1	112	0.00	29.861 
06:50	33.1	33.1	33.1	86	29.4	0	2	90	0.00	29.856 
06:55	33.1	33.1	33.1	87	29.7	0	1	112	0.00	29.847 
07:00	33.2	33.2	33.2	87	29.8	0	2	112	0.00	29.846 
07:05	33.2	33.2	33.2	88	30.0	1	2	135	0.00	29.848 
07:10	33.2	33.2	33.2	88	30.0	0	2	158	0.00	29.838 
07:15	33.2	33.2	33.2	89	30.3	0	1	112	0.00	29.839 
07:20	33.2	33.2	33.2	89	30.3	0	2	90	0.00	29.834 
07:25	33.2	33.2	33.2	90	30.6	0	4	90	0.00	29.831 
07:30	33.2	33.2	33.2	90	30.6	0	2	135	0.00	29.831 
07:35	33.4	33.4	33.4	91	31.1	1	2	135	0.00	29.830 
07:40	33.4	33.4	33.4	91	31.1	0	1	135	0.00	29.827 
07:45	33.4	33.4	33.4	91	31.1	0	1	135	0.00	29.821 
07:50	33.4	33.4	33.4	92	31.3	0	2	135	0.00	29.816 
07:55	33.5	33.5	33.5	92	31.4	0	1	135	0.00	29.816 
08:00	33.5	33.5	33.5	92	31.4	0	1	135	0.00	29.817 
08:05	33.5	33.5	33.5	92	31.4	0	1	135	0.00	29.816 
08:10	33.5	33.5	33.5	92	31.4	0	2	135	0.00	29.815 
08:15	33.5	33.5	33.5	92	31.4	0	1	135	0.00	29.817 
08:20	33.7	33.7	33.7	92	31.6	0	1	135	0.00	29.817 
08:25	33.8	33.8	33.8	93	32.0	0	2	180	0.00	29.816 
08:30	34.0	34.0	34.0	93	32.2	0	2	180	0.00	29.817 
08:35	34.3	34.3	34.3	93	32.5	1	3	248	0.00	29.815 
08:40	34.4	34.4	34.4	93	32.6	0	3	248	0.00	29.815 
08:45	34.4	34.4	34.4	93	32.6	0	1	202	0.13	29.813 
08:50	34.4	34.4	34.4	93	32.6	0	2	202	0.01	29.815 
08:55	34.6	34.6	34.6	94	33.1	0	2	202	0.01	29.812 
09:00	34.6	34.6	34.6	94	33.1	0	2	225	0.00	29.808 
09:05	34.6	34.6	34.6	94	33.1	0	1	248	0.01	29.797 
09:10	34.7	34.7	34.7	94	33.2	0	1	248	0.00	29.793 
09:15	34.7	34.7	34.7	94	33.2	0	1	202	0.00	29.796 
09:20	34.9	34.9	34.9	94	33.4	0	1	202	0.00	29.791 
09:25	34.9	34.9	34.9	94	33.4	0	2	202	0.00	29.784 
09:30	35.0	35.0	35.0	94	33.5	0	1	202	0.00	29.784 
09:35	35.0	35.0	35.0	94	33.5	0	1	202	0.00	29.783 
09:40	35.2	35.2	35.2	94	33.6	0	1	202	0.00	29.781 
09:45	35.3	35.3	35.3	95	34.0	0	3	202	0.00	29.778 
09:50	35.5	35.5	35.5	95	34.2	0	1	270	0.00	29.771 
09:55	35.6	35.6	35.6	95	34.3	0	1	270	0.00	29.769 
10:00	35.9	35.9	35.9	95	34.6	0	1	270	0.00	29.765 
10:05	36.2	36.2	36.2	95	34.9	0	2	270	0.00	29.762 
10:10	36.3	36.3	36.3	95	35.0	0	2	270	0.00	29.765 
10:15	36.5	36.5	36.5	95	35.2	1	3	248	0.00	29.764 
10:20	36.5	36.5	36.5	95	35.2	0	3	248	0.00	29.765 
10:25	36.6	36.6	36.6	95	35.3	1	3	248	0.00	29.763 
10:30	36.8	36.8	36.8	95	35.5	1	4	248	0.00	29.763 
10:35	36.8	36.8	36.8	95	35.5	1	2	248	0.01	29.761 
10:40	36.9	36.9	36.9	95	35.6	1	4	248	0.00	29.758 
10:45	37.0	37.0	37.0	95	35.7	1	3	248	0.00	29.751 
10:50	37.2	37.2	37.2	95	35.9	1	5	248	0.00	29.751 
10:55	37.5	37.5	37.5	95	36.2	1	4	248	0.00	29.750 
11:00	37.8	37.8	37.8	95	36.5	1	4	248	0.00	29.751 
11:05	37.9	37.9	37.9	96	36.9	2	6	248	0.00	29.751 
11:10	37.9	37.9	37.9	96	36.9	2	7	248	0.00	29.750 
11:15	38.0	38.0	38.0	96	37.0	1	4	248	0.00	29.748 
11:20	38.2	38.2	38.2	96	37.2	2	6	248	0.00	29.748 
11:25	38.2	38.2	38.2	96	37.2	2	7	248	0.00	29.746 
11:30	38.3	38.3	38.3	96	37.3	1	5	248	0.00	29.733 
11:35	38.3	38.3	38.3	96	37.3	2	6	248	0.00	29.733 
11:40	38.5	38.5	38.5	96	37.5	1	6	248	0.00	29.731 
11:45	38.6	38.6	38.6	96	37.6	2	4	248	0.00	29.731 
11:50	38.6	38.6	38.6	96	37.6	2	5	248	0.00	29.727 
11:55	38.6	38.6	38.6	96	37.6	3	7	270	0.00	29.726 
12:00	38.8	38.8	38.8	96	37.8	2	7	248	0.00	29.722 
12:05	38.8	35.9	38.8	96	37.8	4	9	248	0.00	29.725 
12:10	38.6	38.6	38.6	96	37.6	2	5	248	0.00	29.723 
12:15	38.8	38.8	38.8	96	37.8	2	6	225	0.00	29.722 
12:20	38.5	38.5	38.5	95	37.2	2	5	248	0.00	29.723 
12:25	38.3	38.3	38.3	95	37.0	3	9	248	0.00	29.724 
12:30	38.2	38.2	38.2	95	36.9	3	6	270	0.00	29.722 
12:35	38.2	35.2	38.2	95	36.9	4	12	248	0.00	29.721 
12:40	38.0	38.0	38.0	95	36.7	3	9	270	0.00	29.718 
12:45	37.9	37.9	37.9	95	36.6	3	5	270	0.00	29.720 
12:50	37.8	34.8	37.8	95	36.5	4	10	270	0.00	29.719 
12:55	37.8	37.8	37.8	95	36.5	2	9	248	0.00	29.713 
13:00	37.8	37.8	37.8	95	36.5	1	5	248	0.00	29.705 
13:05	37.9	37.9	37.9	95	36.6	2	7	248	0.00	29.709 
13:10	38.2	38.2	38.2	95	36.9	1	3	248	0.00	29.708 
13:15	38.3	38.3	38.3	95	37.0	2	5	270	0.00	29.711 
13:20	38.3	38.3	38.3	95	37.0	2	4	270	0.00	29.711 
13:25	38.0	38.0	38.0	95	36.7	3	9	270	0.00	29.710 
13:30	37.9	34.9	37.9	95	36.6	4	9	270	0.00	29.709 
13:35	37.9	37.9	37.9	94	36.3	2	5	270	0.00	29.709 
13:40	37.9	37.9	37.9	94	36.3	3	6	270	0.00	29.713 
13:45	37.6	34.5	37.6	93	35.8	4	11	270	0.00	29.711 
13:50	37.6	37.6	37.6	93	35.8	3	6	270	0.00	29.713 
13:55	37.3	37.3	37.3	92	35.2	3	7	270	0.00	29.712 
14:00	37.0	33.9	37.0	92	34.9	4	9	270	0.00	29.713 
14:05	37.0	37.0	37.0	91	34.6	3	6	270	0.00	29.714 
14:10	37.0	37.0	37.0	91	34.6	3	6	270	0.00	29.711 
14:15	36.9	36.9	36.9	90	34.2	3	10	270	0.00	29.711 
14:20	36.9	36.9	36.9	90	34.2	3	5	248	0.00	29.709 
14:25	37.0	37.0	37.0	90	34.3	3	6	270	0.00	29.712 
14:30	37.0	37.0	37.0	90	34.3	2	5	270	0.00	29.708 
14:35	37.0	37.0	37.0	89	34.1	3	7	270	0.00	29.706 
14:40	37.0	37.0	37.0	89	34.1	2	5	270	0.00	29.706 
14:45	37.2	37.2	37.2	89	34.3	3	6	270	0.00	29.706 
14:50	37.2	37.2	37.2	89	34.3	2	4	248	0.00	29.705 
14:55	37.2	37.2	37.2	88	34.0	3	7	270	0.00	29.707 
15:00	37.0	37.0	37.0	88	33.8	3	6	270	0.00	29.708 
15:05	37.0	33.9	37.0	88	33.8	4	7	270	0.00	29.705 
15:10	36.9	36.9	36.9	89	34.0	3	6	270	0.00	29.706 
15:15	36.9	36.9	36.9	89	34.0	2	6	270	0.00	29.706 
15:20	36.8	36.8	36.8	89	33.9	3	6	270	0.00	29.706 
15:25	36.8	36.8	36.8	89	33.9	3	9	270	0.00	29.709 
15:30	36.8	32.7	36.8	89	33.9	5	12	270	0.00	29.713 
15:35	36.8	36.8	36.8	90	34.1	3	9	270	0.00	29.720 
15:40	36.8	36.8	36.8	90	34.1	3	5	270	0.00	29.722 
15:45	36.8	36.8	36.8	90	34.1	3	6	270	0.00	29.722 
15:50	36.6	33.4	36.6	90	33.9	4	8	270	0.00	29.723 
15:55	36.5	36.5	36.5	90	33.9	3	9	270	0.00	29.725 
16:00	36.5	36.5	36.5	91	34.1	3	7	270	0.00	29.730 
16:05	36.3	36.3	36.3	91	33.9	3	7	270	0.00	29.730 
16:10	36.3	36.3	36.3	91	33.9	3	9	270	0.00	29.729 
16:15	36.2	36.2	36.2	92	34.1	3	6	248	0.00	29.732 
16:20	36.2	36.2	36.2	92	34.1	3	6	270	0.00	29.733 
16:25	36.0	36.0	36.0	92	33.9	3	7	270	0.00	29.734 
16:30	36.0	36.0	36.0	92	33.9	3	7	270	0.00	29.735 
16:35	36.0	32.7	36.0	92	33.9	4	7	270	0.00	29.738 
16:40	36.0	36.0	36.0	92	33.9	3	6	270	0.00	29.739 
16:45	35.9	35.9	35.9	92	33.8	3	6	270	0.00	29.744 
16:50	35.9	32.6	35.9	92	33.8	4	11	270	0.00	29.742 
16:55	35.9	35.9	35.9	92	33.8	3	7	270	0.00	29.745 
17:00	35.8	32.5	35.8	92	33.7	4	11	270	0.00	29.747 
17:05	35.8	35.8	35.8	92	33.7	3	6	248	0.00	29.747 
17:10	35.8	35.8	35.8	92	33.7	3	6	270	0.00	29.749 
17:15	35.8	35.8	35.8	92	33.7	3	5	270	0.00	29.751 
17:20	35.9	35.9	35.9	92	33.8	3	7	270	0.00	29.751 
17:25	35.9	35.9	35.9	92	33.8	3	6	270	0.00	29.752 
17:30	35.9	35.9	35.9	92	33.8	3	5	270	0.00	29.755 
17:35	35.9	35.9	35.9	92	33.8	2	5	248	0.00	29.761 
17:40	35.9	35.9	35.9	92	33.8	3	9	270	0.00	29.764 
17:45	35.9	35.9	35.9	92	33.8	2	5	270	0.00	29.766 
17:50	35.9	32.6	35.9	91	33.5	4	7	270	0.00	29.766 
17:55	36.0	32.7	36.0	91	33.6	4	7	270	0.00	29.768 
18:00	36.0	36.0	36.0	91	33.6	3	7	270	0.00	29.774 
18:05	36.0	36.0	36.0	90	33.4	3	6	270	0.00	29.777 
18:10	36.0	36.0	36.0	90	33.4	2	6	270	0.00	29.780 
18:15	36.0	36.0	36.0	90	33.4	2	5	248	0.00	29.781 
18:20	36.0	36.0	36.0	90	33.4	3	6	270	0.00	29.782 
18:25	35.9	35.9	35.9	90	33.3	3	7	270	0.00	29.783 
18:30	35.9	32.6	35.9	90	33.3	4	7	270	0.00	29.785 
18:35	35.9	32.6	35.9	90	33.3	4	7	270	0.00	29.787 
18:40	36.0	36.0	36.0	89	33.1	3	6	270	0.00	29.791 
18:45	35.9	35.9	35.9	89	33.0	3	6	270	0.00	29.794 
18:50	35.9	32.6	35.9	88	32.7	4	7	270	0.00	29.791 
18:55	35.8	32.5	35.8	86	32.0	4	7	270	0.00	29.797 
19:00	35.6	35.6	35.6	85	31.5	3	5	270	0.00	29.799 
19:05	35.5	32.1	35.5	84	31.2	4	12	270	0.00	29.802 
19:10	35.2	31.8	35.2	80	29.7	4	6	270	0.00	29.809 
19:15	35.0	35.0	35.0	79	29.2	3	6	270	0.00	29.808 
19:20	35.0	35.0	35.0	78	28.8	3	10	270	0.00	29.807 
19:25	35.0	35.0	35.0	77	28.5	3	10	270	0.00	29.809 
19:30	35.0	35.0	35.0	77	28.5	2	5	270	0.00	29.811 
19:35	35.0	35.0	35.0	77	28.5	2	5	292	0.00	29.812 
19:40	34.9	34.9	34.9	77	28.4	2	6	248	0.00	29.812 
19:45	35.0	35.0	35.0	77	28.5	2	9	248	0.00	29.813 
19:50	35.0	35.0	35.0	77	28.5	3	6	270	0.00	29.812 
19:55	35.0	35.0	35.0	77	28.5	2	5	248	0.00	29.813 
20:00	35.0	35.0	35.0	77	28.5	3	8	270	0.00	29.814 
20:05	35.0	35.0	35.0	78	28.8	3	7	270	0.00	29.812 
20:10	35.0	35.0	35.0	78	28.8	2	4	270	0.00	29.812 
20:15	35.0	35.0	35.0	78	28.8	3	8	248	0.00	29.812 
20:20	35.0	35.0	35.0	78	28.8	3	7	270	0.00	29.813 
20:25	35.0	35.0	35.0	76	28.2	3	7	270	0.00	29.813 
20:30	35.2	31.8	35.2	76	28.4	4	11	270	0.00	29.811 
20:35	35.2	31.8	35.2	75	28.1	4	8	270	0.00	29.813 
20:40	35.2	35.2	35.2	75	28.1	3	9	270	0.00	29.814 
20:45	35.2	35.2	35.2	76	28.4	3	6	270	0.00	29.819 
20:50	35.2	35.2	35.2	76	28.4	3	6	270	0.00	29.818 
20:55	35.0	35.0	35.0	76	28.2	2	4	248	0.00	29.815 
21:00	35.0	35.0	35.0	76	28.2	2	4	270	0.00	29.816 
21:05	35.0	35.0	35.0	77	28.5	2	4	270	0.00	29.819 
21:10	35.0	35.0	35.0	77	28.5	2	5	292	0.00	29.818 
21:15	35.0	35.0	35.0	77	28.5	2	5	270	0.00	29.819 
21:20	35.0	35.0	35.0	77	28.5	2	5	270	0.00	29.820 
21:25	35.0	35.0	35.0	77	28.5	2	5	270	0.00	29.817 
21:30	34.9	34.9	34.9	78	28.7	1	4	270	0.00	29.822 
21:35	34.9	34.9	34.9	78	28.7	1	4	248	0.00	29.820 
21:40	34.7	34.7	34.7	78	28.6	1	4	248	0.00	29.817 
21:45	34.4	34.4	34.4	79	28.6	2	6	248	0.00	29.822 
21:50	34.3	34.3	34.3	79	28.5	1	3	248	0.00	29.820 
21:55	34.1	34.1	34.1	80	28.6	2	6	248	0.00	29.821 
22:00	34.1	34.1	34.1	80	28.6	1	4	225	0.00	29.820 
22:05	34.0	34.0	34.0	81	28.8	2	6	270	0.00	29.816 
22:10	33.8	33.8	33.8	81	28.6	1	3	248	0.00	29.815 
22:15	33.8	33.8	33.8	81	28.6	1	3	248	0.00	29.812 
22:20	33.7	33.7	33.7	82	28.8	1	4	248	0.00	29.811 
22:25	33.5	33.5	33.5	82	28.6	0	3	248	0.00	29.811 
22:30	33.5	33.5	33.5	82	28.6	1	3	248	0.00	29.809 
22:35	33.4	33.4	33.4	83	28.8	1	4	248	0.00	29.811 
22:40	33.4	33.4	33.4	83	28.8	1	4	248	0.00	29.810 
22:45	33.2	33.2	33.2	83	28.6	1	3	248	0.00	29.811 
22:50	33.1	33.1	33.1	83	28.5	0	2	248	0.00	29.810 
22:55	33.1	33.1	33.1	83	28.5	1	4	248	0.00	29.809 
23:00	33.1	33.1	33.1	83	28.5	1	4	248	0.00	29.809 
23:05	33.2	33.2	33.2	83	28.6	1	5	270	0.00	29.806 
23:10	33.4	33.4	33.4	82	28.5	1	3	248	0.00	29.808 
23:15	33.4	33.4	33.4	82	28.5	2	4	248	0.00	29.807 
23:20	33.5	33.5	33.5	82	28.6	3	7	248	0.00	29.807 
23:25	33.5	33.5	33.5	82	28.6	2	6	248	0.00	29.806 
23:30	33.5	33.5	33.5	82	28.6	3	5	248	0.00	29.806 
23:35	33.4	33.4	33.4	82	28.5	2	6	248	0.00	29.808 
23:40	33.4	33.4	33.4	82	28.5	3	6	248	0.00	29.808 
23:45	33.2	33.2	33.2	82	28.3	2	6	248	0.00	29.807 
23:50	33.1	33.1	33.1	81	27.9	2	6	248	0.00	29.805 
23:55	33.1	33.1	33.1	81	27.9	1	4	248	0.00	29.802 

CoCoRaHS
IN-AL-39
A2 Web Hosting
Creative Commons License
GoDaddy
search engine by freefind advanced

loaded 2018-11-20 02:36:06 • last modified 2010-11-18 10:43:29
Privacy PolicyDisclaimer
• wx.awcolley.com is powered by PmWiki v.2002016 •
• all content (unless otherwise noted) © 2018 A W Colley